createdAt,value
2022-11-07T00:00:24.374Z,17.53
2022-11-07T00:03:27.249Z,17.08
2022-11-07T00:06:29.635Z,15.90
2022-11-07T00:09:32.191Z,16.27
2022-11-07T00:12:37.420Z,14.97
2022-11-07T00:15:39.773Z,14.60
2022-11-07T00:18:42.258Z,15.57
2022-11-07T00:21:45.203Z,15.35
2022-11-07T00:24:47.523Z,15.33
2022-11-07T00:27:49.877Z,14.93
2022-11-07T00:30:52.215Z,15.63
2022-11-07T00:33:54.575Z,15.33
2022-11-07T00:36:56.950Z,16.37
2022-11-07T00:39:59.330Z,15.80
2022-11-07T00:43:01.698Z,15.88
2022-11-07T00:46:07.344Z,15.38
2022-11-07T00:49:09.846Z,15.63
2022-11-07T00:52:12.249Z,15.40
2022-11-07T00:55:14.618Z,15.50
2022-11-07T00:58:17.475Z,14.17
2022-11-07T01:01:22.693Z,13.43
2022-11-07T01:04:43.870Z,14.40
2022-11-07T01:07:46.218Z,14.43
2022-11-07T01:10:48.540Z,13.27
2022-11-07T01:13:50.910Z,13.60
2022-11-07T01:16:53.334Z,14.25
2022-11-07T01:19:55.746Z,14.35
2022-11-07T01:22:58.190Z,13.98
2022-11-07T01:26:08.992Z,15.30
2022-11-07T01:29:11.344Z,15.55
2022-11-07T01:32:13.762Z,14.10
2022-11-07T01:35:16.240Z,13.77
2022-11-07T01:38:18.702Z,12.50
2022-11-07T01:41:26.309Z,12.25
2022-11-07T01:44:29.047Z,12.98
2022-11-07T01:47:37.457Z,12.52
2022-11-07T01:50:39.904Z,11.77
2022-11-07T01:53:42.474Z,12.73
2022-11-07T01:56:45.770Z,12.73
2022-11-07T01:59:49.806Z,13.13
2022-11-07T02:02:58.004Z,12.53
2022-11-07T02:06:06.336Z,13.53
2022-11-07T02:09:09.366Z,13.60
2022-11-07T02:12:12.609Z,12.70
2022-11-07T02:15:15.075Z,12.52
2022-11-07T02:18:18.008Z,12.97
2022-11-07T02:21:49.322Z,12.88
2022-11-07T02:24:55.331Z,14.15
2022-11-07T02:28:00.016Z,14.10
2022-11-07T02:31:02.401Z,13.60
2022-11-07T02:34:04.786Z,15.77
2022-11-07T02:37:22.345Z,15.60
2022-11-07T02:40:25.348Z,14.50
2022-11-07T02:43:29.997Z,13.07
2022-11-07T02:46:33.099Z,12.00
2022-11-07T02:49:35.757Z,12.48
2022-11-07T02:52:38.415Z,13.35
2022-11-07T02:55:40.822Z,12.13
2022-11-07T02:58:43.238Z,11.43
2022-11-07T03:01:45.718Z,11.93
2022-11-07T03:04:49.236Z,12.00
2022-11-07T03:07:52.431Z,11.73
2022-11-07T03:10:54.950Z,11.13
2022-11-07T03:13:57.345Z,10.63
2022-11-07T03:17:00.008Z,11.05
2022-11-07T03:20:04.470Z,11.30
2022-11-07T03:23:06.822Z,11.50
2022-11-07T03:26:09.315Z,11.65
2022-11-07T03:29:11.731Z,11.03
2022-11-07T03:32:14.115Z,11.15
2022-11-07T03:35:16.655Z,10.20
2022-11-07T03:38:19.181Z,10.07
2022-11-07T03:41:21.685Z,9.80
2022-11-07T03:44:24.101Z,9.70
2022-11-07T03:47:26.458Z,10.00
2022-11-07T03:50:29.167Z,10.57
2022-11-07T03:53:31.555Z,9.90
2022-11-07T03:56:33.989Z,9.93
2022-11-07T03:59:36.419Z,9.90
2022-11-07T04:02:39.369Z,11.65
2022-11-07T04:05:41.887Z,13.60
2022-11-07T04:08:44.268Z,12.40
2022-11-07T04:12:05.029Z,11.37
2022-11-07T04:15:28.416Z,18.23
2022-11-07T04:18:31.024Z,19.73
2022-11-07T04:21:33.485Z,13.18
2022-11-07T04:24:35.861Z,12.15
2022-11-07T04:27:44.227Z,11.67
2022-11-07T04:30:46.598Z,12.30
2022-11-07T04:33:48.973Z,13.40
2022-11-07T04:36:51.314Z,13.82
2022-11-07T04:40:00.515Z,13.20
2022-11-07T04:43:08.939Z,14.37
2022-11-07T04:46:11.319Z,15.80
2022-11-07T04:49:16.533Z,16.85
2022-11-07T04:52:18.899Z,17.25
2022-11-07T04:55:27.576Z,18.45
2022-11-07T04:58:29.924Z,18.07
2022-11-07T05:01:32.300Z,18.70
2022-11-07T05:04:34.698Z,19.02
2022-11-07T05:07:37.343Z,19.30
2022-11-07T05:10:40.228Z,17.90
2022-11-07T05:13:42.554Z,18.80
2022-11-07T05:16:45.208Z,18.33
2022-11-07T05:19:47.854Z,17.63
2022-11-07T05:23:08.570Z,16.35
2022-11-07T05:26:10.916Z,16.20
2022-11-07T05:29:13.359Z,15.43
2022-11-07T05:32:17.147Z,15.80
2022-11-07T05:35:19.552Z,17.60
2022-11-07T05:38:22.176Z,17.05
2022-11-07T05:41:24.655Z,18.35
2022-11-07T05:44:27.418Z,19.23
2022-11-07T05:47:29.783Z,20.27
2022-11-07T05:50:32.574Z,18.02
2022-11-07T05:53:35.157Z,20.05
2022-11-07T05:56:38.456Z,18.60
2022-11-07T05:59:40.833Z,20.13
2022-11-07T06:02:43.529Z,18.80
2022-11-07T06:05:46.592Z,18.80
2022-11-07T06:08:48.996Z,18.60
2022-11-07T06:11:51.395Z,17.60
2022-11-07T06:14:53.974Z,18.47
2022-11-07T06:18:00.256Z,15.88
2022-11-07T06:21:03.229Z,16.25
2022-11-07T06:24:06.240Z,18.30
2022-11-07T06:27:09.442Z,17.40
2022-11-07T06:30:12.406Z,18.25
2022-11-07T06:33:19.802Z,17.95
2022-11-07T06:36:22.565Z,19.17
2022-11-07T06:39:25.334Z,19.63
2022-11-07T06:42:27.800Z,20.63
2022-11-07T06:45:30.373Z,21.65
2022-11-07T06:48:33.825Z,21.50
2022-11-07T06:51:36.351Z,20.45
2022-11-07T06:54:39.041Z,20.10
2022-11-07T06:57:41.426Z,21.33
2022-11-07T07:00:44.048Z,20.90
2022-11-07T07:03:46.691Z,19.98
2022-11-07T07:06:49.081Z,19.48
2022-11-07T07:09:51.718Z,20.60
2022-11-07T07:12:54.690Z,18.53
2022-11-07T07:15:58.326Z,18.63
2022-11-07T07:19:00.793Z,18.75
2022-11-07T07:22:06.420Z,19.38
2022-11-07T07:25:09.552Z,18.90
2022-11-07T07:28:12.125Z,18.23
2022-11-07T07:31:14.746Z,18.67
2022-11-07T07:34:17.306Z,19.40
2022-11-07T07:37:19.752Z,18.98
2022-11-07T07:40:23.556Z,18.20
2022-11-07T07:43:27.624Z,17.53
2022-11-07T07:46:30.179Z,18.98
2022-11-07T07:49:41.843Z,18.95
2022-11-07T07:52:57.028Z,17.65
2022-11-07T07:56:02.795Z,17.43
2022-11-07T07:59:06.681Z,15.27
2022-11-07T08:02:13.438Z,14.80
2022-11-07T08:05:18.150Z,14.85
2022-11-07T08:08:24.195Z,14.57
2022-11-07T08:11:27.134Z,14.67
2022-11-07T08:14:30.172Z,14.47
2022-11-07T08:17:34.207Z,14.85
2022-11-07T08:20:37.176Z,15.18
2022-11-07T08:23:40.195Z,14.15
2022-11-07T08:26:49.120Z,13.77
2022-11-07T08:29:55.833Z,14.60
2022-11-07T08:33:00.838Z,14.07
2022-11-07T08:36:05.380Z,15.20
2022-11-07T08:39:08.313Z,15.23
2022-11-07T08:42:11.018Z,15.07
2022-11-07T08:45:13.607Z,16.30
2022-11-07T08:48:17.394Z,15.63
2022-11-07T08:51:20.080Z,17.20
2022-11-07T08:54:22.754Z,16.23
2022-11-07T08:57:25.479Z,16.60
2022-11-07T09:00:29.094Z,15.73
2022-11-07T09:03:50.145Z,16.08
2022-11-07T09:06:56.761Z,15.07
2022-11-07T09:09:59.363Z,17.35
2022-11-07T09:13:02.066Z,16.77
2022-11-07T09:16:05.179Z,18.70
2022-11-07T09:19:08.018Z,17.33
2022-11-07T09:22:11.553Z,16.88
2022-11-07T09:25:28.926Z,15.88
2022-11-07T09:28:38.392Z,17.07
2022-11-07T09:31:45.264Z,16.83
2022-11-07T09:34:57.010Z,17.42
2022-11-07T09:38:11.811Z,18.52
2022-11-07T09:41:22.953Z,17.50
2022-11-07T09:44:47.967Z,17.50
2022-11-07T09:47:59.475Z,17.97
2022-11-07T09:51:01.914Z,16.90
2022-11-07T09:54:11.381Z,17.48
2022-11-07T09:57:17.847Z,17.52
2022-11-07T10:00:22.597Z,17.07
2022-11-07T10:03:25.381Z,17.90
2022-11-07T10:06:38.472Z,16.95
2022-11-07T10:10:05.998Z,17.35
2022-11-07T10:13:30.277Z,17.50
2022-11-07T10:16:47.910Z,18.23
2022-11-07T10:20:12.679Z,17.77
2022-11-07T10:23:57.735Z,17.55
2022-11-07T10:27:02.022Z,17.10
2022-11-07T10:30:16.641Z,16.85
2022-11-07T10:33:55.260Z,16.00
2022-11-07T10:36:57.739Z,15.67
2022-11-07T10:40:00.157Z,15.20
2022-11-07T10:43:13.349Z,14.77
2022-11-07T10:46:33.831Z,15.60
2022-11-07T10:49:36.596Z,15.27
2022-11-07T10:53:03.721Z,14.97
2022-11-07T10:56:11.202Z,14.50
2022-11-07T10:59:21.430Z,15.23
2022-11-07T11:02:30.262Z,15.77
2022-11-07T11:05:46.351Z,16.03
2022-11-07T11:08:51.201Z,15.43
2022-11-07T11:11:53.842Z,15.38
2022-11-07T11:15:05.309Z,15.18
2022-11-07T11:18:15.792Z,15.70
2022-11-07T11:21:18.781Z,15.30
2022-11-07T11:24:30.582Z,15.70
2022-11-07T11:27:38.743Z,16.02
2022-11-07T11:30:43.078Z,16.50
2022-11-07T11:33:53.383Z,15.98
2022-11-07T11:42:55.374Z,15.63
2022-11-07T11:46:14.945Z,15.45
2022-11-07T11:49:46.814Z,16.30
2022-11-07T11:52:49.605Z,16.17
2022-11-07T11:56:07.491Z,16.07
2022-11-07T11:59:45.403Z,16.60
2022-11-07T12:03:13.126Z,17.08
2022-11-07T12:06:16.933Z,15.98
2022-11-07T12:09:33.993Z,16.90
2022-11-07T12:13:30.923Z,17.33
2022-11-07T12:16:47.388Z,17.23
2022-11-07T12:20:02.949Z,17.17
2022-11-07T12:23:32.933Z,16.95
2022-11-07T12:26:58.164Z,17.50
2022-11-07T12:30:06.938Z,18.13
2022-11-07T12:33:47.856Z,22.00
2022-11-07T12:36:50.347Z,23.40
2022-11-07T12:39:55.465Z,18.02
2022-11-07T12:43:24.506Z,17.80
2022-11-07T12:46:54.784Z,18.20
2022-11-07T12:50:06.240Z,17.87
2022-11-07T12:53:36.131Z,17.88
2022-11-07T12:56:40.076Z,17.92
2022-11-07T12:59:49.165Z,18.20
2022-11-07T13:02:56.407Z,18.73
2022-11-07T13:06:10.138Z,18.23
2022-11-07T13:09:31.562Z,18.83
2022-11-07T13:12:51.069Z,19.70
2022-11-07T13:16:14.552Z,19.75
2022-11-07T13:19:29.440Z,19.50
2022-11-07T13:22:40.306Z,20.20
2022-11-07T13:25:43.575Z,20.02
2022-11-07T13:28:57.919Z,20.15
2022-11-07T13:32:05.912Z,20.95
2022-11-07T13:35:10.826Z,20.80
2022-11-07T13:38:23.299Z,19.93
2022-11-07T13:41:31.982Z,20.30
2022-11-07T13:45:38.229Z,20.65
2022-11-07T13:48:57.390Z,20.95
2022-11-07T13:52:10.270Z,20.83
2022-11-07T13:55:18.827Z,21.30
2022-11-07T13:58:22.461Z,24.63
2022-11-07T14:01:25.178Z,25.50
2022-11-07T14:04:29.423Z,24.65
2022-11-07T14:07:35.586Z,22.37
2022-11-07T14:10:46.439Z,21.37
2022-11-07T14:13:52.786Z,21.27
2022-11-07T14:17:00.697Z,20.30
2022-11-07T14:20:14.966Z,21.75
2022-11-07T14:23:22.160Z,21.07
2022-11-07T14:26:32.324Z,21.87
2022-11-07T14:29:34.952Z,22.75
2022-11-07T14:32:39.176Z,24.38
2022-11-07T14:35:46.729Z,24.23
2022-11-07T14:38:52.375Z,24.33
2022-11-07T14:41:57.173Z,24.60
2022-11-07T14:45:00.663Z,28.33
2022-11-07T14:48:03.432Z,25.77
2022-11-07T14:51:06.218Z,26.10
2022-11-07T14:54:16.538Z,26.60
2022-11-07T14:57:19.126Z,24.47
2022-11-07T15:00:22.989Z,24.52
2022-11-07T15:03:32.952Z,26.05
2022-11-07T15:06:42.582Z,26.25
2022-11-07T15:09:44.942Z,23.23
2022-11-07T15:12:53.222Z,23.17
2022-11-07T15:16:19.994Z,23.48
2022-11-07T15:19:23.758Z,21.90
2022-11-07T15:22:52.807Z,22.98
2022-11-07T15:25:56.762Z,25.90
2022-11-07T15:29:21.131Z,22.53
2022-11-07T15:32:26.633Z,21.52
2022-11-07T15:35:45.220Z,21.17
2022-11-07T15:38:49.744Z,21.00
2022-11-07T15:41:52.384Z,21.30
2022-11-07T15:44:54.846Z,22.60
2022-11-07T15:47:57.178Z,23.77
2022-11-07T15:50:59.635Z,26.85
2022-11-07T15:54:02.240Z,29.08
2022-11-07T15:57:06.918Z,33.20
2022-11-07T16:00:24.278Z,36.53
2022-11-07T16:03:28.197Z,34.78
2022-11-07T16:06:31.733Z,33.85
2022-11-07T16:09:34.155Z,31.75
2022-11-07T16:12:36.512Z,33.63
2022-11-07T16:15:41.658Z,33.57
2022-11-07T16:18:45.836Z,33.05
2022-11-07T16:21:48.489Z,33.88
2022-11-07T16:24:50.995Z,31.30
2022-11-07T16:28:03.305Z,31.97
2022-11-07T16:31:05.884Z,30.67
2022-11-07T16:34:10.942Z,30.55
2022-11-07T16:37:13.396Z,30.48
2022-11-07T16:40:19.017Z,30.40
2022-11-07T16:43:21.537Z,32.67
2022-11-07T16:46:26.435Z,34.27
2022-11-07T16:49:33.986Z,37.78
2022-11-07T16:52:36.498Z,40.13
2022-11-07T16:55:40.747Z,40.80
2022-11-07T16:58:43.131Z,39.80
2022-11-07T17:01:45.985Z,41.33
2022-11-07T17:04:49.880Z,40.58
2022-11-07T17:07:54.270Z,46.13
2022-11-07T17:10:56.660Z,54.22
2022-11-07T17:13:59.647Z,47.93
2022-11-07T17:17:02.162Z,39.93
2022-11-07T17:20:05.961Z,37.97
2022-11-07T17:23:08.467Z,34.50
2022-11-07T17:26:11.545Z,35.05
2022-11-07T17:29:14.670Z,59.40
2022-11-07T17:32:17.943Z,43.77
2022-11-07T17:35:32.107Z,40.25
2022-11-07T17:38:35.360Z,44.65
2022-11-07T17:41:41.757Z,47.95
2022-11-07T17:44:45.880Z,56.33
2022-11-07T17:47:49.980Z,60.43
2022-11-07T17:50:53.252Z,59.10
2022-11-07T17:53:56.895Z,43.45
2022-11-07T17:56:59.595Z,49.17
2022-11-07T18:00:04.317Z,45.60
2022-11-07T18:03:07.185Z,47.30
2022-11-07T18:06:10.342Z,44.47
2022-11-07T18:09:16.108Z,46.33
2022-11-07T18:12:18.928Z,47.60
2022-11-07T18:15:21.520Z,44.90
2022-11-07T18:18:23.916Z,48.50
2022-11-07T18:21:27.484Z,49.08
2022-11-07T18:24:30.070Z,47.47
2022-11-07T18:27:32.975Z,46.08
2022-11-07T18:30:36.639Z,46.67
2022-11-07T18:33:40.225Z,44.07
2022-11-07T18:36:45.121Z,44.00
2022-11-07T18:39:47.764Z,40.00
2022-11-07T18:42:50.456Z,41.97
2022-11-07T18:45:53.805Z,42.87
2022-11-07T18:48:56.418Z,39.90
2022-11-07T18:51:59.149Z,40.17
2022-11-07T18:55:01.820Z,39.45
2022-11-07T18:58:04.685Z,42.80
2022-11-07T19:01:10.889Z,43.83
2022-11-07T19:04:13.519Z,45.17
2022-11-07T19:07:16.066Z,50.30
2022-11-07T19:10:20.121Z,45.75
2022-11-07T19:13:23.483Z,51.38
2022-11-07T19:16:26.233Z,48.27
2022-11-07T19:19:28.966Z,44.90
2022-11-07T19:22:32.116Z,42.55
2022-11-07T19:25:38.590Z,39.33
2022-11-07T19:28:41.705Z,40.53
2022-11-07T19:31:44.382Z,41.37
2022-11-07T19:34:46.735Z,37.37
2022-11-07T19:37:49.414Z,36.00
2022-11-07T19:40:52.072Z,36.20
2022-11-07T19:43:54.694Z,37.15
2022-11-07T19:46:57.409Z,36.07
2022-11-07T19:50:01.196Z,34.00
2022-11-07T19:53:04.020Z,33.25
2022-11-07T19:56:08.787Z,33.25
2022-11-07T19:59:11.536Z,33.60
2022-11-07T20:02:32.135Z,38.00
2022-11-07T20:05:38.498Z,33.50
2022-11-07T20:08:41.580Z,30.90
2022-11-07T20:11:44.389Z,30.05
2022-11-07T20:14:46.807Z,32.20
2022-11-07T20:17:49.661Z,30.67
2022-11-07T20:21:00.318Z,30.00
2022-11-07T20:24:05.423Z,28.73
2022-11-07T20:27:07.948Z,29.60
2022-11-07T20:30:11.133Z,28.70
2022-11-07T20:33:14.083Z,28.73
2022-11-07T20:36:18.101Z,26.70
2022-11-07T20:39:21.209Z,27.77
2022-11-07T20:42:23.841Z,27.30
2022-11-07T20:45:26.251Z,26.88
2022-11-07T20:48:28.643Z,26.40
2022-11-07T20:51:31.633Z,25.07
2022-11-07T20:54:35.231Z,26.38
2022-11-07T20:57:37.879Z,26.45
2022-11-07T21:00:41.379Z,25.23
2022-11-07T21:03:43.892Z,26.87
2022-11-07T21:06:46.661Z,24.27
2022-11-07T21:09:49.271Z,24.80
2022-11-07T21:12:51.624Z,25.42
2022-11-07T21:15:54.091Z,23.55
2022-11-07T21:18:56.730Z,23.53
2022-11-07T21:21:59.142Z,25.80
2022-11-07T21:25:04.770Z,25.75
2022-11-07T21:28:07.271Z,25.75
2022-11-07T21:31:12.748Z,25.30
2022-11-07T21:34:15.146Z,24.83
2022-11-07T21:37:17.903Z,24.80
2022-11-07T21:40:20.475Z,23.42
2022-11-07T21:43:22.890Z,25.23
2022-11-07T21:46:31.623Z,25.60
2022-11-07T21:49:34.282Z,25.30
2022-11-07T21:52:36.590Z,25.27
2022-11-07T21:55:39.018Z,26.08
2022-11-07T21:58:41.770Z,26.40
2022-11-07T22:01:44.327Z,29.27
2022-11-07T22:04:46.997Z,26.60
2022-11-07T22:07:49.428Z,28.37
2022-11-07T22:10:52.108Z,27.52
2022-11-07T22:13:54.592Z,27.95
2022-11-07T22:16:57.044Z,28.00
2022-11-07T22:19:59.366Z,27.87
2022-11-07T22:23:01.726Z,26.13
2022-11-07T22:26:30.091Z,28.90
2022-11-07T22:29:32.546Z,27.50
2022-11-07T22:32:34.974Z,26.75
2022-11-07T22:35:37.367Z,26.80
2022-11-07T22:38:40.601Z,27.57
2022-11-07T22:41:43.374Z,28.23
2022-11-07T22:44:46.432Z,24.60
2022-11-07T22:47:48.802Z,26.13
2022-11-07T22:50:51.164Z,27.90
2022-11-07T22:54:05.936Z,27.13
2022-11-07T22:57:08.295Z,26.75
2022-11-07T23:00:21.445Z,28.95
2022-11-07T23:03:24.123Z,27.50
2022-11-07T23:06:28.622Z,25.67
2022-11-07T23:09:31.389Z,26.33
2022-11-07T23:12:35.228Z,26.67
2022-11-07T23:15:37.618Z,26.85
2022-11-07T23:18:39.973Z,21.93
2022-11-07T23:21:42.862Z,21.38
2022-11-07T23:24:48.185Z,24.88
2022-11-07T23:27:50.527Z,25.25
2022-11-07T23:30:53.705Z,26.08
2022-11-07T23:33:56.189Z,26.30
2022-11-07T23:36:58.786Z,25.17
2022-11-07T23:40:01.240Z,26.38
2022-11-07T23:43:03.775Z,27.15
2022-11-07T23:46:25.202Z,26.07
2022-11-07T23:49:46.261Z,27.70
2022-11-07T23:52:48.696Z,28.50
2022-11-07T23:55:51.028Z,26.33
2022-11-07T23:59:12.491Z,24.57
